Time;durP1;ratioP1;P1;durP2;ratioP2;P2;SDS_P1;SDS_P2;PMS_P1;PMS_P2;Temp;Humidity;BMP_temperature;BMP_pressure;BME280_temperature;BME280_humidity;BME280_pressure;Samples;Min_cycle;Max_cycle;Signal;HPM_P1;HPM_P2
2022/04/22 00:01:06;;;;;;;14.40;7.38;;;;;;;;;;5026951;28;20037;-60
2022/04/22 00:03:33;;;;;;;14.32;6.75;;;;;;;;;;5026545;28;20054;-59
2022/04/22 00:06:00;;;;;;;12.52;7.43;;;;;;;;;;5026699;28;20505;-59
2022/04/22 00:08:26;;;;;;;17.70;7.20;;;;;;;;;;5026895;28;20050;-59
2022/04/22 00:13:37;;;;;;;12.70;6.63;;;;;;;;;;5026651;28;20421;-59
2022/04/22 00:16:04;;;;;;;12.65;7.57;;;;;;;;;;5026574;28;20053;-59
2022/04/22 00:18:31;;;;;;;11.82;7.72;;;;;;;;;;5026402;28;20060;-59
2022/04/22 00:20:57;;;;;;;12.27;6.88;;;;;;;;;;5008925;28;20045;-59
2022/04/22 00:23:25;;;;;;;14.23;6.78;;;;;;;;;;5026520;28;20077;-60
2022/04/22 00:25:51;;;;;;;15.13;6.80;;;;;;;;;;5026432;28;20174;-60
2022/04/22 00:28:17;;;;;;;14.02;6.75;;;;;;;;;;5026274;28;20726;-59
2022/04/22 00:30:44;;;;;;;15.25;6.78;;;;;;;;;;5008885;28;20045;-60
2022/04/22 00:33:10;;;;;;;14.93;6.43;;;;;;;;;;5026108;28;20054;-59
2022/04/22 00:35:36;;;;;;;13.32;6.32;;;;;;;;;;5026203;28;20097;-59
2022/04/22 00:38:02;;;;;;;12.18;7.38;;;;;;;;;;5025871;28;20073;-60
2022/04/22 00:40:28;;;;;;;13.15;5.82;;;;;;;;;;5026202;28;20054;-59
2022/04/22 00:42:55;;;;;;;15.57;6.28;;;;;;;;;;5025816;28;20056;-59
2022/04/22 00:45:21;;;;;;;10.50;6.63;;;;;;;;;;5025677;28;20048;-60
2022/04/22 00:47:47;;;;;;;12.32;7.22;;;;;;;;;;5012182;28;20046;-59
2022/04/22 00:50:14;;;;;;;10.20;6.55;;;;;;;;;;5006393;28;20101;-59
2022/04/22 00:52:40;;;;;;;10.57;7.18;;;;;;;;;;5006230;28;20110;-60
2022/04/22 00:55:06;;;;;;;16.95;7.35;;;;;;;;;;5006416;28;20042;-59
2022/04/22 00:57:33;;;;;;;13.73;7.00;;;;;;;;;;5006028;28;20058;-61
2022/04/22 00:59:59;;;;;;;13.65;7.60;;;;;;;;;;5005994;28;20070;-59
2022/04/22 01:02:25;;;;;;;12.73;6.15;;;;;;;;;;5005965;28;20057;-59
2022/04/22 01:10:21;;;;;;;9.07;6.63;;;;;;;;;;5005991;28;20057;-59
2022/04/22 01:12:47;;;;;;;11.90;7.03;;;;;;;;;;5005729;28;20046;-59
2022/04/22 01:15:13;;;;;;;16.80;6.93;;;;;;;;;;5005724;28;20411;-60
2022/04/22 01:17:39;;;;;;;14.23;7.53;;;;;;;;;;5005985;28;20130;-59
2022/04/22 01:20:07;;;;;;;10.52;7.25;;;;;;;;;;5005657;28;20402;-60
2022/04/22 01:22:33;;;;;;;11.23;7.50;;;;;;;;;;5005820;28;20098;-59
2022/04/22 01:25:01;;;;;;;13.68;8.07;;;;;;;;;;5005995;28;20402;-59
2022/04/22 01:27:30;;;;;;;17.08;7.47;;;;;;;;;;5005582;28;20042;-59
2022/04/22 01:29:58;;;;;;;10.85;6.97;;;;;;;;;;5005433;28;20046;-60
2022/04/22 01:32:26;;;;;;;13.32;7.88;;;;;;;;;;5005408;28;20150;-60
2022/04/22 01:34:52;;;;;;;17.63;7.22;;;;;;;;;;5005627;28;20081;-60
2022/04/22 01:37:18;;;;;;;18.23;7.50;;;;;;;;;;5005549;28;20042;-59
2022/04/22 01:39:44;;;;;;;15.30;7.78;;;;;;;;;;5005376;28;20072;-59
2022/04/22 01:42:10;;;;;;;13.60;7.22;;;;;;;;;;5005285;28;20097;-59
2022/04/22 01:44:36;;;;;;;13.52;7.20;;;;;;;;;;5005334;28;20101;-60
2022/04/22 01:47:03;;;;;;;10.02;5.93;;;;;;;;;;5005483;28;20050;-60
2022/04/22 01:49:29;;;;;;;12.40;7.50;;;;;;;;;;5005287;28;20046;-60
2022/04/22 01:51:55;;;;;;;12.80;6.10;;;;;;;;;;4987458;28;20092;-60
2022/04/22 01:54:22;;;;;;;11.70;7.25;;;;;;;;;;4986913;28;20046;-60
2022/04/22 01:56:48;;;;;;;10.70;5.80;;;;;;;;;;5005140;28;20042;-59
2022/04/22 01:59:14;;;;;;;6.35;5.50;;;;;;;;;;5005121;28;20050;-59
2022/04/22 02:01:40;;;;;;;13.63;6.50;;;;;;;;;;5005052;28;20494;-60
2022/04/22 02:04:06;;;;;;;10.43;7.50;;;;;;;;;;5004890;28;20104;-59
2022/04/22 02:06:32;;;;;;;11.90;6.97;;;;;;;;;;5005174;28;20156;-59
2022/04/22 02:08:59;;;;;;;14.20;6.97;;;;;;;;;;5005055;28;20050;-59
2022/04/22 02:11:25;;;;;;;16.27;6.88;;;;;;;;;;5005005;28;20043;-58
2022/04/22 02:13:51;;;;;;;14.57;7.35;;;;;;;;;;5005030;28;20069;-59
2022/04/22 02:16:17;;;;;;;12.35;6.43;;;;;;;;;;5004838;28;20526;-59
2022/04/22 02:18:43;;;;;;;12.10;5.45;;;;;;;;;;5005006;28;20125;-59
2022/04/22 02:21:10;;;;;;;10.60;6.68;;;;;;;;;;5005047;28;20131;-59
2022/04/22 02:23:37;;;;;;;12.75;7.30;;;;;;;;;;5004899;28;20081;-60
2022/04/22 02:26:04;;;;;;;11.23;7.20;;;;;;;;;;5005067;28;20043;-60
2022/04/22 02:28:33;;;;;;;7.93;5.22;;;;;;;;;;5004950;28;20042;-60
2022/04/22 02:31:12;;;;;;;14.90;6.50;;;;;;;;;;5004860;28;20040;-60
2022/04/22 02:33:39;;;;;;;9.48;5.68;;;;;;;;;;5004849;28;20050;-60
2022/04/22 02:36:06;;;;;;;15.65;7.13;;;;;;;;;;5004611;28;20570;-60
2022/04/22 02:38:33;;;;;;;9.68;6.18;;;;;;;;;;4987139;28;20122;-59
2022/04/22 02:46:29;;;;;;;10.52;6.05;;;;;;;;;;5004793;28;20061;-59
2022/04/22 02:48:59;;;;;;;16.50;7.20;;;;;;;;;;5004511;28;20054;-59
2022/04/22 02:51:25;;;;;;;11.40;6.95;;;;;;;;;;5004846;28;20046;-59
2022/04/22 02:53:52;;;;;;;8.63;5.88;;;;;;;;;;5004805;28;20058;-59
2022/04/22 02:56:22;;;;;;;13.88;6.85;;;;;;;;;;5004540;28;20053;-59
2022/04/22 02:58:48;;;;;;;10.25;5.07;;;;;;;;;;5004596;28;20046;-58
2022/04/22 03:01:15;;;;;;;12.73;6.57;;;;;;;;;;5004578;28;20405;-59
2022/04/22 03:03:44;;;;;;;11.52;5.57;;;;;;;;;;5004249;28;20580;-59
2022/04/22 03:06:10;;;;;;;10.82;6.47;;;;;;;;;;5007261;28;20054;-59
2022/04/22 03:08:36;;;;;;;20.75;5.82;;;;;;;;;;5008349;28;20047;-58
2022/04/22 03:11:03;;;;;;;12.25;6.20;;;;;;;;;;5008152;28;20100;-58
2022/04/22 03:13:30;;;;;;;11.80;6.93;;;;;;;;;;5007909;28;20046;-59
2022/04/22 03:15:57;;;;;;;7.38;5.45;;;;;;;;;;5008029;28;20398;-58
2022/04/22 03:18:23;;;;;;;12.30;6.22;;;;;;;;;;5007958;28;20046;-59
2022/04/22 03:20:50;;;;;;;6.30;4.75;;;;;;;;;;5008137;28;20211;-59
2022/04/22 03:23:16;;;;;;;15.57;6.95;;;;;;;;;;5007739;28;20505;-59
2022/04/22 03:25:42;;;;;;;10.85;6.45;;;;;;;;;;5007983;28;20065;-59
2022/04/22 03:28:08;;;;;;;14.93;6.00;;;;;;;;;;5008072;28;20050;-59
2022/04/22 03:30:34;;;;;;;10.30;6.47;;;;;;;;;;5007730;28;20046;-59
2022/04/22 03:33:01;;;;;;;8.50;5.70;;;;;;;;;;5007510;28;20073;-59
2022/04/22 03:35:28;;;;;;;13.68;6.90;;;;;;;;;;5007615;28;20071;-59
2022/04/22 03:37:55;;;;;;;9.93;6.53;;;;;;;;;;5007502;28;20058;-59
2022/04/22 03:40:21;;;;;;;17.88;6.78;;;;;;;;;;5007719;28;20257;-59
2022/04/22 03:42:47;;;;;;;15.40;6.93;;;;;;;;;;5007589;28;20049;-59
2022/04/22 03:45:13;;;;;;;15.75;7.35;;;;;;;;;;5007244;28;20046;-59
2022/04/22 03:47:40;;;;;;;11.98;6.65;;;;;;;;;;5007429;28;20098;-59
2022/04/22 03:50:06;;;;;;;11.07;6.28;;;;;;;;;;5007755;28;20050;-59
2022/04/22 03:52:32;;;;;;;8.70;5.30;;;;;;;;;;5007459;28;20053;-59
2022/04/22 03:54:58;;;;;;;7.82;5.78;;;;;;;;;;5007537;28;20050;-59
2022/04/22 04:00:09;;;;;;;12.77;6.50;;;;;;;;;;5007141;28;20053;-58
2022/04/22 04:02:36;;;;;;;16.70;6.78;;;;;;;;;;5007132;28;20131;-58
2022/04/22 04:05:02;;;;;;;14.88;6.95;;;;;;;;;;5007221;28;20086;-60
2022/04/22 04:07:28;;;;;;;14.20;6.65;;;;;;;;;;5006961;28;20054;-59
2022/04/22 04:18:09;;;;;;;10.90;6.00;;;;;;;;;;5006080;28;20114;-58
2022/04/22 04:23:20;;;;;;;12.75;6.97;;;;;;;;;;5006916;28;20051;-59
2022/04/22 04:25:47;;;;;;;9.88;6.30;;;;;;;;;;5006854;28;20054;-60
2022/04/22 04:28:15;;;;;;;10.13;5.72;;;;;;;;;;5006743;28;20072;-60
2022/04/22 04:30:41;;;;;;;;;;;;;;;;;;5007055;28;20049;-60
2022/04/22 04:33:07;;;;;;;6.45;4.13;;;;;;;;;;5006736;28;19922;-58
2022/04/22 04:35:38;;;;;;;10.10;6.05;;;;;;;;;;5006549;28;20046;-59
2022/04/22 04:38:05;;;;;;;8.73;6.20;;;;;;;;;;5006288;28;20058;-60
2022/04/22 04:40:32;;;;;;;8.98;5.05;;;;;;;;;;5006549;28;20047;-61
2022/04/22 04:43:00;;;;;;;9.45;5.60;;;;;;;;;;5006376;28;20050;-60
2022/04/22 04:45:28;;;;;;;8.18;4.95;;;;;;;;;;5006335;28;20050;-59
2022/04/22 04:47:54;;;;;;;10.05;6.00;;;;;;;;;;5006310;28;20111;-59
2022/04/22 04:50:20;;;;;;;11.07;6.32;;;;;;;;;;5006300;28;20046;-59
2022/04/22 04:52:46;;;;;;;7.03;3.67;;;;;;;;;;5006167;28;20050;-59
2022/04/22 04:55:15;;;;;;;10.02;5.53;;;;;;;;;;4988989;28;20057;-59
2022/04/22 04:57:42;;;;;;;8.40;4.90;;;;;;;;;;5006099;28;20046;-59
2022/04/22 05:00:09;;;;;;;11.70;5.53;;;;;;;;;;5005738;28;20502;-60
2022/04/22 05:02:35;;;;;;;6.13;4.10;;;;;;;;;;5006240;28;20072;-59
2022/04/22 05:05:01;;;;;;;11.48;4.53;;;;;;;;;;5005901;28;20038;-59
2022/04/22 05:07:28;;;;;;;13.32;5.28;;;;;;;;;;5006049;28;20085;-60
2022/04/22 05:09:54;;;;;;;7.10;4.63;;;;;;;;;;5005937;28;20046;-60
2022/04/22 05:12:20;;;;;;;5.68;3.97;;;;;;;;;;5005864;28;20555;-59
2022/04/22 05:14:46;;;;;;;9.82;4.80;;;;;;;;;;5005880;28;20049;-60
2022/04/22 05:17:13;;;;;;;8.93;3.97;;;;;;;;;;5005719;28;20054;-60
2022/04/22 05:19:39;;;;;;;6.85;4.53;;;;;;;;;;5005698;28;20046;-60
2022/04/22 05:22:05;;;;;;;4.97;3.83;;;;;;;;;;5005901;28;20198;-59
2022/04/22 05:24:31;;;;;;;6.18;3.85;;;;;;;;;;5005664;28;20046;-60
2022/04/22 05:27:00;;;;;;;9.02;3.85;;;;;;;;;;5005679;28;20422;-59
2022/04/22 05:34:56;;;;;;;6.60;3.40;;;;;;;;;;5005670;28;20147;-59
2022/04/22 05:37:23;;;;;;;5.85;3.35;;;;;;;;;;5005304;28;20054;-60
2022/04/22 05:39:50;;;;;;;6.75;2.60;;;;;;;;;;5005395;28;20077;-59
2022/04/22 05:42:16;;;;;;;5.47;3.50;;;;;;;;;;5005525;28;20082;-59
2022/04/22 05:44:42;;;;;;;5.13;3.42;;;;;;;;;;5005021;28;20049;-60
2022/04/22 05:47:08;;;;;;;4.18;3.08;;;;;;;;;;5005362;28;20050;-60
2022/04/22 05:49:34;;;;;;;5.28;3.22;;;;;;;;;;5008753;28;20069;-61
2022/04/22 05:52:01;;;;;;;9.00;3.55;;;;;;;;;;5023970;28;20098;-60
2022/04/22 05:54:27;;;;;;;5.15;3.55;;;;;;;;;;5022954;28;20050;-59
2022/04/22 05:56:53;;;;;;;7.43;2.95;;;;;;;;;;5023485;28;20052;-60
2022/04/22 05:59:19;;;;;;;6.10;3.00;;;;;;;;;;5023196;28;20046;-59
2022/04/22 06:01:45;;;;;;;6.93;3.42;;;;;;;;;;5024512;28;20496;-59
2022/04/22 06:04:11;;;;;;;4.90;3.00;;;;;;;;;;5024832;28;20107;-59
2022/04/22 06:06:37;;;;;;;7.68;3.20;;;;;;;;;;5024041;28;20034;-60
2022/04/22 06:11:48;;;;;;;4.20;2.67;;;;;;;;;;5023806;28;20046;-59
2022/04/22 06:14:15;;;;;;;6.70;4.03;;;;;;;;;;5018625;28;20049;-59
2022/04/22 06:16:41;;;;;;;4.00;2.05;;;;;;;;;;5024686;28;20052;-59
2022/04/22 06:19:07;;;;;;;6.22;2.70;;;;;;;;;;5024887;28;20111;-58
2022/04/22 06:21:33;;;;;;;6.53;3.25;;;;;;;;;;5024122;28;20045;-60
2022/04/22 06:23:59;;;;;;;6.05;2.90;;;;;;;;;;5023554;28;20110;-60
2022/04/22 06:26:26;;;;;;;9.32;3.13;;;;;;;;;;5023121;28;20586;-60
2022/04/22 06:28:52;;;;;;;5.97;2.72;;;;;;;;;;5023423;28;20085;-60
2022/04/22 06:31:18;;;;;;;9.40;2.67;;;;;;;;;;5024212;28;20030;-59
2022/04/22 06:33:44;;;;;;;4.18;2.45;;;;;;;;;;5023460;28;20038;-59
2022/04/22 06:36:13;;;;;;;4.15;2.47;;;;;;;;;;5023739;28;20482;-60
2022/04/22 06:38:40;;;;;;;10.20;2.20;;;;;;;;;;5023132;28;20088;-60
2022/04/22 06:46:37;;;;;;;7.72;2.60;;;;;;;;;;5027885;28;20154;-59
2022/04/22 06:49:03;;;;;;;6.35;2.78;;;;;;;;;;5027468;28;20072;-58
2022/04/22 06:51:29;;;;;;;9.25;3.05;;;;;;;;;;5019925;28;20042;-61
2022/04/22 06:53:55;;;;;;;5.63;2.78;;;;;;;;;;5026993;28;20050;-60
2022/04/22 06:56:28;;;;;;;3.67;2.33;;;;;;;;;;5025826;28;20048;-60
2022/04/22 06:58:54;;;;;;;4.68;2.72;;;;;;;;;;5033656;28;20045;-59
2022/04/22 07:01:20;;;;;;;3.90;2.40;;;;;;;;;;5025909;28;20149;-59
2022/04/22 07:03:47;;;;;;;3.75;2.70;;;;;;;;;;5025885;28;20165;-59
2022/04/22 07:06:13;;;;;;;4.15;2.55;;;;;;;;;;5021656;28;20042;-60
2022/04/22 07:08:41;;;;;;;4.00;1.95;;;;;;;;;;5027658;28;20042;-59
2022/04/22 07:11:07;;;;;;;;;;;;;;;;;;5026376;28;20045;-58
2022/04/22 07:13:33;;;;;;;7.85;2.83;;;;;;;;;;5019922;28;20375;-62
2022/04/22 07:15:59;;;;;;;5.40;2.50;;;;;;;;;;5008219;28;20102;-60
2022/04/22 07:18:26;;;;;;;7.18;2.70;;;;;;;;;;5017432;28;20106;-60
2022/04/22 07:20:52;;;;;;;10.43;2.72;;;;;;;;;;5017896;28;20048;-60
2022/04/22 07:23:18;;;;;;;9.52;2.55;;;;;;;;;;5027359;28;20041;-60
2022/04/22 07:25:46;;;;;;;3.90;2.40;;;;;;;;;;5027493;28;20120;-60
2022/04/22 07:28:13;;;;;;;6.20;2.33;;;;;;;;;;5027115;28;20050;-60
2022/04/22 07:30:40;;;;;;;5.60;2.63;;;;;;;;;;5027009;28;20046;-60
2022/04/22 07:33:09;;;;;;;10.70;3.17;;;;;;;;;;5026823;28;20045;-60
2022/04/22 07:35:35;;;;;;;3.47;1.45;;;;;;;;;;5027349;28;20501;-60
2022/04/22 07:38:02;;;;;;;4.35;1.75;;;;;;;;;;5027208;28;20061;-60
2022/04/22 07:40:28;;;;;;;6.10;2.28;;;;;;;;;;5027176;28;20053;-60
2022/04/22 07:48:26;;;;;;;5.85;2.50;;;;;;;;;;5027184;28;20061;-60
2022/04/22 07:50:54;;;;;;;6.80;2.50;;;;;;;;;;5026833;28;20046;-60
2022/04/22 07:53:20;;;;;;;7.00;2.28;;;;;;;;;;5024238;28;20046;-60
2022/04/22 07:55:48;;;;;;;4.63;2.10;;;;;;;;;;5020427;28;20049;-60
2022/04/22 07:58:14;;;;;;;4.53;2.03;;;;;;;;;;5026610;28;20046;-60
2022/04/22 08:00:41;;;;;;;3.97;2.20;;;;;;;;;;5022149;28;20081;-59
2022/04/22 08:03:08;;;;;;;5.53;2.50;;;;;;;;;;5019318;28;20101;-60
2022/04/22 08:05:34;;;;;;;4.90;2.88;;;;;;;;;;5026529;28;20460;-59
2022/04/22 08:08:00;;;;;;;4.57;2.13;;;;;;;;;;5026557;28;20049;-59
2022/04/22 08:10:26;;;;;;;5.68;2.67;;;;;;;;;;5024209;28;20049;-59
2022/04/22 08:12:53;;;;;;;7.22;2.55;;;;;;;;;;5007062;28;20130;-59
2022/04/22 08:15:19;;;;;;;9.48;2.60;;;;;;;;;;5015479;28;20101;-59
2022/04/22 08:17:46;;;;;;;8.23;3.38;;;;;;;;;;5026665;28;20057;-60
2022/04/22 08:20:13;;;;;;;4.07;2.40;;;;;;;;;;5009562;28;20097;-59
2022/04/22 08:22:39;;;;;;;6.60;2.20;;;;;;;;;;5007169;28;20052;-59
2022/04/22 08:25:06;;;;;;;5.57;1.92;;;;;;;;;;5006898;28;20078;-60
2022/04/22 08:27:32;;;;;;;6.03;2.13;;;;;;;;;;5006825;28;20050;-59
2022/04/22 08:29:59;;;;;;;5.30;2.35;;;;;;;;;;5006561;28;20608;-59
2022/04/22 08:32:26;;;;;;;5.28;2.85;;;;;;;;;;5006821;28;20112;-59
2022/04/22 08:34:52;;;;;;;3.95;2.20;;;;;;;;;;5006639;28;20387;-60
2022/04/22 08:37:18;;;;;;;5.38;1.70;;;;;;;;;;5006731;28;20061;-59
2022/04/22 08:39:45;;;;;;;4.10;2.50;;;;;;;;;;5025819;28;20058;-60
2022/04/22 08:42:12;;;;;;;5.88;1.98;;;;;;;;;;5026032;28;20049;-60
2022/04/22 08:44:39;;;;;;;4.85;2.80;;;;;;;;;;5034673;28;20057;-59
2022/04/22 08:49:59;;;;;;;3.78;2.17;;;;;;;;;;5029955;28;20041;-59
2022/04/22 08:52:26;;;;;;;4.70;2.42;;;;;;;;;;5017565;28;20053;-59
2022/04/22 08:54:53;;;;;;;3.95;1.90;;;;;;;;;;5006320;28;20049;-59
2022/04/22 08:57:20;;;;;;;5.55;2.70;;;;;;;;;;5006420;28;20437;-60
2022/04/22 08:59:46;;;;;;;7.35;2.63;;;;;;;;;;5006228;28;20052;-59
2022/04/22 09:02:19;;;;;;;4.90;2.60;;;;;;;;;;5006042;28;20050;-59
2022/04/22 09:04:48;;;;;;;5.15;2.13;;;;;;;;;;5006118;28;20132;-59
2022/04/22 09:07:16;;;;;;;5.22;2.10;;;;;;;;;;5015261;28;20048;-59
2022/04/22 09:09:44;;;;;;;4.22;2.28;;;;;;;;;;5045309;28;20076;-60
2022/04/22 09:12:14;;;;;;;3.65;1.90;;;;;;;;;;5031245;28;20068;-60
2022/04/22 09:14:47;;;;;;;6.20;2.42;;;;;;;;;;5024632;28;20117;-59
2022/04/22 09:17:17;;;;;;;4.57;2.45;;;;;;;;;;5025488;28;20057;-59
2022/04/22 09:19:44;;;;;;;7.85;2.38;;;;;;;;;;5025459;28;20046;-59
2022/04/22 09:22:10;;;;;;;5.15;2.58;;;;;;;;;;5023987;28;20046;-60
2022/04/22 09:24:47;;;;;;;4.97;2.40;;;;;;;;;;5025490;28;20052;-60
2022/04/22 09:27:13;;;;;;;3.58;2.03;;;;;;;;;;5025100;28;20061;-60
2022/04/22 09:29:43;;;;;;;5.25;2.60;;;;;;;;;;5025161;28;20045;-60
2022/04/22 09:32:10;;;;;;;4.60;2.40;;;;;;;;;;5010911;28;20038;-59
2022/04/22 09:34:39;;;;;;;6.95;2.45;;;;;;;;;;5024655;28;20049;-59
2022/04/22 09:43:01;;;;;;;8.18;2.35;;;;;;;;;;4985727;28;20054;-60
2022/04/22 09:45:38;;;;;;;3.80;2.08;;;;;;;;;;5002980;28;20189;-60
2022/04/22 09:48:13;;;;;;;4.70;2.35;;;;;;;;;;4987966;28;20054;-60
2022/04/22 09:50:40;;;;;;;4.18;2.35;;;;;;;;;;5005509;28;20088;-60
2022/04/22 09:53:07;;;;;;;3.35;2.38;;;;;;;;;;4985994;28;20070;-60
2022/04/22 09:55:36;;;;;;;18.05;3.33;;;;;;;;;;4985726;28;20050;-60
2022/04/22 09:58:02;;;;;;;4.38;2.65;;;;;;;;;;4986720;28;20042;-60
2022/04/22 10:00:30;;;;;;;6.35;2.25;;;;;;;;;;4986948;28;20045;-60
2022/04/22 10:02:57;;;;;;;5.40;2.80;;;;;;;;;;5003815;28;20050;-60
2022/04/22 10:05:25;;;;;;;4.25;2.10;;;;;;;;;;5004809;28;20043;-60
2022/04/22 10:07:55;;;;;;;3.72;2.13;;;;;;;;;;5004805;28;20050;-60
2022/04/22 10:10:23;;;;;;;5.10;2.40;;;;;;;;;;4992175;28;20046;-60
2022/04/22 10:12:49;;;;;;;;;;;;;;;;;;5004882;28;20042;-60
2022/04/22 10:15:19;;;;;;;8.85;2.92;;;;;;;;;;4999463;28;20475;-60
2022/04/22 10:17:45;;;;;;;6.60;2.40;;;;;;;;;;5003106;28;20053;-60
2022/04/22 10:20:12;;;;;;;9.45;2.75;;;;;;;;;;4995858;28;20043;-60
2022/04/22 10:22:38;;;;;;;5.13;2.78;;;;;;;;;;4999688;28;20101;-60
2022/04/22 10:25:07;;;;;;;8.40;2.35;;;;;;;;;;5002079;28;20038;-60
2022/04/22 10:27:37;;;;;;;4.03;1.83;;;;;;;;;;4997015;28;20439;-64
2022/04/22 10:30:05;;;;;;;8.70;2.90;;;;;;;;;;4999647;28;20433;-63
2022/04/22 10:32:33;;;;;;;5.88;2.60;;;;;;;;;;5001285;28;20069;-64
2022/04/22 10:35:00;;;;;;;3.70;2.70;;;;;;;;;;5002763;28;20046;-63
2022/04/22 10:37:28;;;;;;;6.32;3.45;;;;;;;;;;4987180;28;20046;-64
2022/04/22 10:39:55;;;;;;;4.45;2.45;;;;;;;;;;5022388;28;20046;-63
2022/04/22 10:42:30;;;;;;;5.90;2.47;;;;;;;;;;5006015;28;20410;-64
2022/04/22 10:47:44;;;;;;;6.22;2.47;;;;;;;;;;5016082;28;20046;-67
2022/04/22 10:50:31;;;;;;;3.28;2.78;;;;;;;;;;5009999;28;20046;-68
2022/04/22 10:53:02;;;;;;;6.07;2.80;;;;;;;;;;4995506;28;20081;-63
2022/04/22 10:55:36;;;;;;;6.07;2.88;;;;;;;;;;5015438;28;20042;-64
2022/04/22 10:58:23;;;;;;;7.18;2.67;;;;;;;;;;5020684;28;20070;-65
2022/04/22 11:00:54;;;;;;;5.13;2.63;;;;;;;;;;5017578;28;20045;-64
2022/04/22 11:03:22;;;;;;;5.78;3.10;;;;;;;;;;5022148;28;20042;-65
2022/04/22 11:05:52;;;;;;;3.13;2.35;;;;;;;;;;5018167;28;20066;-66
2022/04/22 11:08:25;;;;;;;3.35;2.35;;;;;;;;;;5015437;28;20125;-66
2022/04/22 11:10:51;;;;;;;5.22;3.00;;;;;;;;;;5021915;28;20564;-62
2022/04/22 11:13:28;;;;;;;4.30;2.47;;;;;;;;;;5013975;28;20043;-63
2022/04/22 11:15:57;;;;;;;4.20;2.15;;;;;;;;;;5023745;28;20054;-62
2022/04/22 11:18:23;;;;;;;9.80;3.83;;;;;;;;;;5023649;28;20578;-62
2022/04/22 11:21:05;;;;;;;4.32;2.47;;;;;;;;;;5021938;28;20124;-62
2022/04/22 11:23:49;;;;;;;7.65;3.33;;;;;;;;;;5014050;28;20049;-66
2022/04/22 11:26:18;;;;;;;5.68;3.15;;;;;;;;;;5020247;28;20048;-62
2022/04/22 11:28:45;;;;;;;3.60;2.45;;;;;;;;;;5024990;28;20042;-64
2022/04/22 11:31:12;;;;;;;4.25;2.50;;;;;;;;;;5020923;28;20410;-64
2022/04/22 11:33:48;;;;;;;4.38;2.67;;;;;;;;;;5027094;28;20117;-63
2022/04/22 11:36:14;;;;;;;5.28;2.58;;;;;;;;;;5009532;28;20146;-63
2022/04/22 11:38:50;;;;;;;5.45;2.45;;;;;;;;;;4998562;28;20137;-62
2022/04/22 11:41:17;;;;;;;5.15;3.25;;;;;;;;;;5021083;28;20042;-62
2022/04/22 11:43:43;;;;;;;4.85;3.05;;;;;;;;;;5024358;28;20049;-61
2022/04/22 11:46:11;;;;;;;6.93;3.33;;;;;;;;;;5022715;28;20038;-63
2022/04/22 11:48:44;;;;;;;13.65;3.33;;;;;;;;;;5025948;28;20208;-64
2022/04/22 11:51:10;;;;;;;4.07;3.22;;;;;;;;;;5025331;28;20457;-63
2022/04/22 11:53:37;;;;;;;5.07;2.80;;;;;;;;;;5008333;28;20042;-68
2022/04/22 11:56:07;;;;;;;4.35;2.80;;;;;;;;;;5008981;28;20037;-67
2022/04/22 11:58:33;;;;;;;5.20;3.42;;;;;;;;;;5024169;28;20057;-64
2022/04/22 12:06:29;;;;;;;4.72;3.03;;;;;;;;;;5022741;28;20048;-66
2022/04/22 12:08:56;;;;;;;5.75;3.30;;;;;;;;;;5024035;28;20181;-65
2022/04/22 12:11:23;;;;;;;3.42;2.33;;;;;;;;;;5014212;28;20078;-68
2022/04/22 12:13:50;;;;;;;8.13;2.28;;;;;;;;;;5025450;28;20361;-66
2022/04/22 12:16:19;;;;;;;5.50;3.10;;;;;;;;;;5021263;28;20048;-62
2022/04/22 12:18:53;;;;;;;4.13;2.85;;;;;;;;;;5027649;28;20045;-61
2022/04/22 12:21:20;;;;;;;5.40;2.42;;;;;;;;;;5020574;28;20117;-64
2022/04/22 12:23:47;;;;;;;2.83;2.20;;;;;;;;;;5022974;28;20099;-64
2022/04/22 12:26:15;;;;;;;5.07;3.05;;;;;;;;;;5023950;28;20069;-63
2022/04/22 12:29:00;;;;;;;3.45;2.78;;;;;;;;;;5015558;28;20072;-68
2022/04/22 12:31:27;;;;;;;4.88;2.75;;;;;;;;;;5008002;28;20089;-66
2022/04/22 12:34:12;;;;;;;4.90;2.63;;;;;;;;;;5004719;28;20103;-67
2022/04/22 12:36:59;;;;;;;6.47;3.45;;;;;;;;;;5016887;28;20088;-66
2022/04/22 12:39:34;;;;;;;7.72;3.65;;;;;;;;;;5023770;28;20092;-65
2022/04/22 12:42:00;;;;;;;4.68;2.22;;;;;;;;;;5020193;28;20041;-65
2022/04/22 12:44:26;;;;;;;6.30;2.53;;;;;;;;;;5020726;28;20058;-65
2022/04/22 12:52:33;;;;;;;5.75;2.53;;;;;;;;;;5013850;28;20081;-60
2022/04/22 12:55:17;;;;;;;4.10;3.13;;;;;;;;;;5018244;28;20132;-60
2022/04/22 12:57:43;;;;;;;3.80;2.63;;;;;;;;;;5024577;28;20096;-62
2022/04/22 13:00:16;;;;;;;5.47;2.80;;;;;;;;;;5022939;28;20075;-62
2022/04/22 13:02:42;;;;;;;7.47;3.40;;;;;;;;;;5017254;28;20056;-61
2022/04/22 13:05:17;;;;;;;10.13;3.38;;;;;;;;;;5016464;28;20102;-68
2022/04/22 13:07:45;;;;;;;6.25;3.63;;;;;;;;;;5024294;28;20054;-66
2022/04/22 13:10:11;;;;;;;5.03;2.90;;;;;;;;;;5013745;28;20085;-67
2022/04/22 13:12:41;;;;;;;4.78;2.95;;;;;;;;;;5003927;28;20049;-64
2022/04/22 13:15:19;;;;;;;6.40;2.70;;;;;;;;;;5024893;28;20046;-66
2022/04/22 13:17:54;;;;;;;7.63;3.70;;;;;;;;;;5018608;28;20049;-65
2022/04/22 13:20:21;;;;;;;4.68;3.47;;;;;;;;;;5022774;28;20112;-65
2022/04/22 13:22:48;;;;;;;5.53;3.35;;;;;;;;;;5022156;28;20398;-65
2022/04/22 13:25:15;;;;;;;5.28;2.67;;;;;;;;;;5018623;28;20124;-65
2022/04/22 13:27:42;;;;;;;8.32;3.58;;;;;;;;;;5016694;28;20097;-66
2022/04/22 13:30:15;;;;;;;7.95;3.90;;;;;;;;;;5004971;28;20073;-67
2022/04/22 13:32:41;;;;;;;5.47;2.92;;;;;;;;;;5011657;28;20076;-66
2022/04/22 13:35:10;;;;;;;6.83;3.37;;;;;;;;;;5005297;28;20042;-68
2022/04/22 13:37:36;;;;;;;10.45;3.58;;;;;;;;;;5021396;28;20068;-66
2022/04/22 13:40:03;;;;;;;4.72;2.58;;;;;;;;;;5015453;28;20054;-65
2022/04/22 13:42:29;;;;;;;5.63;3.40;;;;;;;;;;5020119;28;20406;-61
2022/04/22 13:53:10;;;;;;;6.43;3.08;;;;;;;;;;5008055;28;20042;-61
2022/04/22 13:55:37;;;;;;;5.60;3.47;;;;;;;;;;5024626;28;20097;-61
2022/04/22 13:58:03;;;;;;;7.32;3.90;;;;;;;;;;5019713;28;20192;-62
2022/04/22 14:00:30;;;;;;;3.67;3.20;;;;;;;;;;5020510;28;20042;-61
2022/04/22 14:02:57;;;;;;;5.23;3.70;;;;;;;;;;5005659;28;20108;-61
2022/04/22 14:05:23;;;;;;;3.38;2.42;;;;;;;;;;5014575;28;20693;-61
2022/04/22 14:07:49;;;;;;;5.22;3.30;;;;;;;;;;5022195;28;20076;-61
2022/04/22 14:10:16;;;;;;;6.53;3.33;;;;;;;;;;5018148;28;20042;-63
2022/04/22 14:12:42;;;;;;;6.13;3.85;;;;;;;;;;5023315;28;20304;-63
2022/04/22 14:15:08;;;;;;;11.30;3.38;;;;;;;;;;5004844;28;20046;-61
2022/04/22 14:17:35;;;;;;;8.60;3.53;;;;;;;;;;5008026;28;20100;-61
2022/04/22 14:20:03;;;;;;;4.47;3.42;;;;;;;;;;5021785;28;20048;-61
2022/04/22 14:22:29;;;;;;;6.05;3.45;;;;;;;;;;5014603;28;20046;-61
2022/04/22 14:24:56;;;;;;;3.78;2.83;;;;;;;;;;5009375;28;20121;-61
2022/04/22 14:27:23;;;;;;;6.13;3.75;;;;;;;;;;5024355;28;20042;-61
2022/04/22 14:29:49;;;;;;;5.93;3.50;;;;;;;;;;5024214;28;20053;-60
2022/04/22 14:32:15;;;;;;;6.63;3.45;;;;;;;;;;5024293;28;20106;-70
2022/04/22 14:34:41;;;;;;;7.38;3.53;;;;;;;;;;5023873;28;20129;-68
2022/04/22 14:37:07;;;;;;;5.93;3.65;;;;;;;;;;5024450;28;20049;-68
2022/04/22 14:39:34;;;;;;;6.35;4.00;;;;;;;;;;5016806;28;20050;-69
2022/04/22 14:42:00;;;;;;;6.40;3.28;;;;;;;;;;5024300;28;20450;-68
2022/04/22 14:44:27;;;;;;;5.70;2.85;;;;;;;;;;5024318;28;20540;-69
2022/04/22 14:46:53;;;;;;;8.98;3.65;;;;;;;;;;5024411;28;20263;-69
2022/04/22 14:49:19;;;;;;;6.65;2.70;;;;;;;;;;5024282;28;20053;-68
2022/04/22 14:51:48;;;;;;;6.32;3.83;;;;;;;;;;5024403;28;20050;-69
2022/04/22 14:54:14;;;;;;;6.47;3.20;;;;;;;;;;5021710;28;20064;-68
2022/04/22 14:56:41;;;;;;;7.47;3.95;;;;;;;;;;5022902;28;20101;-68
2022/04/22 14:59:07;;;;;;;7.63;4.05;;;;;;;;;;5024066;28;20109;-68
2022/04/22 15:01:33;;;;;;;6.00;3.28;;;;;;;;;;5022698;28;20042;-69
2022/04/22 15:03:59;;;;;;;5.30;3.25;;;;;;;;;;5005484;28;20064;-69
2022/04/22 15:06:26;;;;;;;6.05;3.97;;;;;;;;;;5006706;28;20118;-69
2022/04/22 15:08:52;;;;;;;8.68;3.80;;;;;;;;;;5008053;28;20057;-68
2022/04/22 15:11:18;;;;;;;8.27;3.63;;;;;;;;;;5009370;28;20043;-68
2022/04/22 15:13:44;;;;;;;8.25;4.10;;;;;;;;;;5026572;28;20060;-70
2022/04/22 15:16:10;;;;;;;8.15;3.47;;;;;;;;;;5007110;28;20049;-69
2022/04/22 15:24:09;;;;;;;5.05;3.00;;;;;;;;;;5023841;28;20073;-69
2022/04/22 15:26:35;;;;;;;4.57;2.72;;;;;;;;;;5008519;28;20406;-68
2022/04/22 15:29:08;;;;;;;5.82;3.20;;;;;;;;;;5024577;28;20180;-69
2022/04/22 15:31:34;;;;;;;6.00;3.35;;;;;;;;;;5009431;28;20046;-69
2022/04/22 15:34:00;;;;;;;6.93;3.33;;;;;;;;;;5015353;28;20093;-76
2022/04/22 15:36:27;;;;;;;6.47;3.60;;;;;;;;;;5028893;28;20034;-76
2022/04/22 15:38:54;;;;;;;5.70;3.20;;;;;;;;;;5007280;28;20054;-70
2022/04/22 15:41:20;;;;;;;5.70;3.20;;;;;;;;;;5025733;28;20042;-74
2022/04/22 15:43:50;;;;;;;3.90;2.92;;;;;;;;;;5023502;28;20045;-76
2022/04/22 15:46:21;;;;;;;8.95;3.45;;;;;;;;;;5021808;28;20050;-74
2022/04/22 15:48:47;;;;;;;7.80;3.28;;;;;;;;;;5025326;28;20045;-75
2022/04/22 15:51:14;;;;;;;4.07;3.03;;;;;;;;;;5027458;28;20113;-73
2022/04/22 15:53:41;;;;;;;6.45;3.30;;;;;;;;;;5007178;28;20065;-76
2022/04/22 15:56:09;;;;;;;4.70;3.00;;;;;;;;;;5016511;28;20117;-76
2022/04/22 15:58:36;;;;;;;5.78;3.33;;;;;;;;;;5017612;28;20057;-71
2022/04/22 16:01:03;;;;;;;10.52;5.13;;;;;;;;;;5026833;28;20096;-81
2022/04/22 16:03:29;;;;;;;5.95;3.83;;;;;;;;;;5009987;28;20120;-79
2022/04/22 16:06:01;;;;;;;7.97;3.80;;;;;;;;;;5008528;28;20050;-75